sensor_id;sensor_type;location;lat;lon;timestamp;temperature;humidity
19892;DHT22;10108;50.142;8.724;2023-12-07T00:01:07;5.40;99.90
19892;DHT22;10108;50.142;8.724;2023-12-07T00:03:33;5.30;99.90
19892;DHT22;10108;50.142;8.724;2023-12-07T00:05:59;5.30;99.90
19892;DHT22;10108;50.142;8.724;2023-12-07T00:08:25;5.30;99.90
19892;DHT22;10108;50.142;8.724;2023-12-07T00:10:51;5.30;99.90
19892;DHT22;10108;50.142;8.724;2023-12-07T00:13:17;5.30;99.90
19892;DHT22;10108;50.142;8.724;2023-12-07T00:15:44;5.20;99.90
19892;DHT22;10108;50.142;8.724;2023-12-07T00:18:10;5.20;99.90
19892;DHT22;10108;50.142;8.724;2023-12-07T00:20:36;5.20;99.90
19892;DHT22;10108;50.142;8.724;2023-12-07T00:23:02;5.20;99.90
19892;DHT22;10108;50.142;8.724;2023-12-07T00:25:29;5.10;99.90
19892;DHT22;10108;50.142;8.724;2023-12-07T00:27:55;5.10;99.90
19892;DHT22;10108;50.142;8.724;2023-12-07T00:30:21;5.10;99.90
19892;DHT22;10108;50.142;8.724;2023-12-07T00:32:47;5.10;99.90
19892;DHT22;10108;50.142;8.724;2023-12-07T00:35:13;5.10;99.90
19892;DHT22;10108;50.142;8.724;2023-12-07T00:37:40;5.10;99.90
19892;DHT22;10108;50.142;8.724;2023-12-07T00:40:06;5.10;99.90
19892;DHT22;10108;50.142;8.724;2023-12-07T00:42:33;5.10;99.90
19892;DHT22;10108;50.142;8.724;2023-12-07T00:45:01;5.10;99.90
19892;DHT22;10108;50.142;8.724;2023-12-07T00:47:27;5.10;99.90
19892;DHT22;10108;50.142;8.724;2023-12-07T00:49:53;5.00;99.90
19892;DHT22;10108;50.142;8.724;2023-12-07T00:52:19;5.00;99.90
19892;DHT22;10108;50.142;8.724;2023-12-07T00:54:45;5.00;99.90
19892;DHT22;10108;50.142;8.724;2023-12-07T00:57:11;5.00;99.90
19892;DHT22;10108;50.142;8.724;2023-12-07T00:59:37;4.90;99.90
19892;DHT22;10108;50.142;8.724;2023-12-07T01:02:04;4.90;99.90
19892;DHT22;10108;50.142;8.724;2023-12-07T01:04:30;4.90;99.90
19892;DHT22;10108;50.142;8.724;2023-12-07T01:06:57;4.90;99.90
19892;DHT22;10108;50.142;8.724;2023-12-07T01:09:23;4.90;99.90
19892;DHT22;10108;50.142;8.724;2023-12-07T01:11:50;4.80;99.90
19892;DHT22;10108;50.142;8.724;2023-12-07T01:14:16;4.70;99.90
19892;DHT22;10108;50.142;8.724;2023-12-07T01:16:43;4.70;99.90
19892;DHT22;10108;50.142;8.724;2023-12-07T01:19:10;4.60;99.90
19892;DHT22;10108;50.142;8.724;2023-12-07T01:21:43;4.60;99.90
19892;DHT22;10108;50.142;8.724;2023-12-07T01:24:09;4.60;99.90
19892;DHT22;10108;50.142;8.724;2023-12-07T01:26:36;4.50;99.90
19892;DHT22;10108;50.142;8.724;2023-12-07T01:29:02;4.50;99.90
19892;DHT22;10108;50.142;8.724;2023-12-07T01:31:29;4.50;99.90
19892;DHT22;10108;50.142;8.724;2023-12-07T01:33:56;4.40;99.90
19892;DHT22;10108;50.142;8.724;2023-12-07T01:36:22;4.40;99.90
19892;DHT22;10108;50.142;8.724;2023-12-07T01:38:48;4.40;99.90
19892;DHT22;10108;50.142;8.724;2023-12-07T01:41:14;4.40;99.90
19892;DHT22;10108;50.142;8.724;2023-12-07T01:43:47;4.40;99.90
19892;DHT22;10108;50.142;8.724;2023-12-07T01:46:14;4.40;99.90
19892;DHT22;10108;50.142;8.724;2023-12-07T01:48:41;4.50;99.90
19892;DHT22;10108;50.142;8.724;2023-12-07T01:51:08;4.50;99.90
19892;DHT22;10108;50.142;8.724;2023-12-07T01:53:37;4.50;99.90
19892;DHT22;10108;50.142;8.724;2023-12-07T01:56:05;4.40;99.90
19892;DHT22;10108;50.142;8.724;2023-12-07T01:58:32;4.30;99.90
19892;DHT22;10108;50.142;8.724;2023-12-07T02:00:59;4.20;99.90
19892;DHT22;10108;50.142;8.724;2023-12-07T02:03:26;4.20;99.90
19892;DHT22;10108;50.142;8.724;2023-12-07T02:05:53;4.20;99.90
19892;DHT22;10108;50.142;8.724;2023-12-07T02:08:20;4.20;99.90
19892;DHT22;10108;50.142;8.724;2023-12-07T02:10:46;4.10;99.90
19892;DHT22;10108;50.142;8.724;2023-12-07T02:13:13;4.00;99.90
19892;DHT22;10108;50.142;8.724;2023-12-07T02:15:39;4.00;99.90
19892;DHT22;10108;50.142;8.724;2023-12-07T02:18:16;3.80;99.90
19892;DHT22;10108;50.142;8.724;2023-12-07T02:20:49;3.80;99.90
19892;DHT22;10108;50.142;8.724;2023-12-07T02:23:18;3.90;99.90
19892;DHT22;10108;50.142;8.724;2023-12-07T02:25:51;4.10;99.90
19892;DHT22;10108;50.142;8.724;2023-12-07T02:28:18;4.20;99.90
19892;DHT22;10108;50.142;8.724;2023-12-07T02:30:44;4.30;99.90
19892;DHT22;10108;50.142;8.724;2023-12-07T02:33:11;4.30;99.90
19892;DHT22;10108;50.142;8.724;2023-12-07T02:35:38;4.30;99.90
19892;DHT22;10108;50.142;8.724;2023-12-07T02:38:06;4.20;99.90
19892;DHT22;10108;50.142;8.724;2023-12-07T02:40:33;4.10;99.90
19892;DHT22;10108;50.142;8.724;2023-12-07T02:43:00;4.00;99.90
19892;DHT22;10108;50.142;8.724;2023-12-07T02:45:27;3.90;99.90
19892;DHT22;10108;50.142;8.724;2023-12-07T02:47:54;3.70;99.90
19892;DHT22;10108;50.142;8.724;2023-12-07T02:50:20;3.60;99.90
19892;DHT22;10108;50.142;8.724;2023-12-07T02:52:46;3.70;99.90
19892;DHT22;10108;50.142;8.724;2023-12-07T02:55:12;3.80;99.90
19892;DHT22;10108;50.142;8.724;2023-12-07T02:57:38;3.80;99.90
19892;DHT22;10108;50.142;8.724;2023-12-07T03:00:05;3.70;99.90
19892;DHT22;10108;50.142;8.724;2023-12-07T03:02:37;3.60;99.90
19892;DHT22;10108;50.142;8.724;2023-12-07T03:05:03;3.60;99.90
19892;DHT22;10108;50.142;8.724;2023-12-07T03:07:30;3.60;99.90
19892;DHT22;10108;50.142;8.724;2023-12-07T03:09:56;3.70;99.90
19892;DHT22;10108;50.142;8.724;2023-12-07T03:12:22;3.70;99.90
19892;DHT22;10108;50.142;8.724;2023-12-07T03:14:51;3.70;99.90
19892;DHT22;10108;50.142;8.724;2023-12-07T03:17:17;3.70;99.90
19892;DHT22;10108;50.142;8.724;2023-12-07T03:19:43;3.60;99.90
19892;DHT22;10108;50.142;8.724;2023-12-07T03:22:09;3.60;99.90
19892;DHT22;10108;50.142;8.724;2023-12-07T03:24:36;3.70;99.90
19892;DHT22;10108;50.142;8.724;2023-12-07T03:27:03;3.80;99.90
19892;DHT22;10108;50.142;8.724;2023-12-07T03:29:30;3.90;99.90
19892;DHT22;10108;50.142;8.724;2023-12-07T03:31:57;3.90;99.90
19892;DHT22;10108;50.142;8.724;2023-12-07T03:34:24;3.90;99.90
19892;DHT22;10108;50.142;8.724;2023-12-07T03:36:50;3.70;99.90
19892;DHT22;10108;50.142;8.724;2023-12-07T03:39:17;3.60;99.90
19892;DHT22;10108;50.142;8.724;2023-12-07T03:41:44;3.60;99.90
19892;DHT22;10108;50.142;8.724;2023-12-07T03:44:11;3.60;99.90
19892;DHT22;10108;50.142;8.724;2023-12-07T03:46:37;3.70;99.90
19892;DHT22;10108;50.142;8.724;2023-12-07T03:49:03;3.70;99.90
19892;DHT22;10108;50.142;8.724;2023-12-07T03:51:30;3.60;99.90
19892;DHT22;10108;50.142;8.724;2023-12-07T03:53:56;3.50;99.90
19892;DHT22;10108;50.142;8.724;2023-12-07T03:56:27;3.30;99.90
19892;DHT22;10108;50.142;8.724;2023-12-07T03:58:53;3.20;99.90
19892;DHT22;10108;50.142;8.724;2023-12-07T04:01:24;3.20;99.90
19892;DHT22;10108;50.142;8.724;2023-12-07T04:03:51;3.10;99.90
19892;DHT22;10108;50.142;8.724;2023-12-07T04:06:18;3.10;99.90
19892;DHT22;10108;50.142;8.724;2023-12-07T04:08:44;3.10;99.90
19892;DHT22;10108;50.142;8.724;2023-12-07T04:11:11;3.00;99.90
19892;DHT22;10108;50.142;8.724;2023-12-07T04:13:37;3.00;99.90
19892;DHT22;10108;50.142;8.724;2023-12-07T04:16:03;3.00;99.90
19892;DHT22;10108;50.142;8.724;2023-12-07T04:18:29;3.00;99.90
19892;DHT22;10108;50.142;8.724;2023-12-07T04:20:55;3.20;99.90
19892;DHT22;10108;50.142;8.724;2023-12-07T04:23:22;3.30;99.90
19892;DHT22;10108;50.142;8.724;2023-12-07T04:25:48;3.50;99.90
19892;DHT22;10108;50.142;8.724;2023-12-07T04:28:14;3.60;99.90
19892;DHT22;10108;50.142;8.724;2023-12-07T04:30:40;3.70;99.90
19892;DHT22;10108;50.142;8.724;2023-12-07T04:33:06;3.80;99.90
19892;DHT22;10108;50.142;8.724;2023-12-07T04:35:32;3.90;99.90
19892;DHT22;10108;50.142;8.724;2023-12-07T04:37:58;3.90;99.90
19892;DHT22;10108;50.142;8.724;2023-12-07T04:40:25;3.70;99.90
19892;DHT22;10108;50.142;8.724;2023-12-07T04:42:51;3.60;99.90
19892;DHT22;10108;50.142;8.724;2023-12-07T04:45:17;3.50;99.90
19892;DHT22;10108;50.142;8.724;2023-12-07T04:47:44;3.40;99.90
19892;DHT22;10108;50.142;8.724;2023-12-07T04:50:11;3.40;99.90
19892;DHT22;10108;50.142;8.724;2023-12-07T04:52:37;3.40;99.90
19892;DHT22;10108;50.142;8.724;2023-12-07T04:55:05;3.30;99.90
19892;DHT22;10108;50.142;8.724;2023-12-07T04:57:34;3.30;99.90
19892;DHT22;10108;50.142;8.724;2023-12-07T05:00:01;3.30;99.90
19892;DHT22;10108;50.142;8.724;2023-12-07T05:02:32;3.30;99.90
19892;DHT22;10108;50.142;8.724;2023-12-07T05:04:58;3.40;99.90
19892;DHT22;10108;50.142;8.724;2023-12-07T05:07:25;3.40;99.90
19892;DHT22;10108;50.142;8.724;2023-12-07T05:09:51;3.50;99.90
19892;DHT22;10108;50.142;8.724;2023-12-07T05:12:17;3.60;99.90
19892;DHT22;10108;50.142;8.724;2023-12-07T05:14:43;3.70;99.90
19892;DHT22;10108;50.142;8.724;2023-12-07T05:17:10;3.70;99.90
19892;DHT22;10108;50.142;8.724;2023-12-07T05:19:36;3.80;99.90
19892;DHT22;10108;50.142;8.724;2023-12-07T05:22:02;3.80;99.90
19892;DHT22;10108;50.142;8.724;2023-12-07T05:24:28;3.70;99.90
19892;DHT22;10108;50.142;8.724;2023-12-07T05:26:56;3.70;99.90
19892;DHT22;10108;50.142;8.724;2023-12-07T05:29:22;3.60;99.90
19892;DHT22;10108;50.142;8.724;2023-12-07T05:31:49;3.50;99.90
19892;DHT22;10108;50.142;8.724;2023-12-07T05:34:16;3.30;99.90
19892;DHT22;10108;50.142;8.724;2023-12-07T05:36:44;3.30;99.90
19892;DHT22;10108;50.142;8.724;2023-12-07T05:39:10;3.40;99.90
19892;DHT22;10108;50.142;8.724;2023-12-07T05:41:37;3.50;99.90
19892;DHT22;10108;50.142;8.724;2023-12-07T05:44:03;3.40;99.90
19892;DHT22;10108;50.142;8.724;2023-12-07T05:46:29;3.40;99.90
19892;DHT22;10108;50.142;8.724;2023-12-07T05:48:56;3.30;99.90
19892;DHT22;10108;50.142;8.724;2023-12-07T05:51:23;3.20;99.90
19892;DHT22;10108;50.142;8.724;2023-12-07T05:53:49;3.20;99.90
19892;DHT22;10108;50.142;8.724;2023-12-07T05:56:19;3.20;99.90
19892;DHT22;10108;50.142;8.724;2023-12-07T05:58:48;3.20;99.90
19892;DHT22;10108;50.142;8.724;2023-12-07T06:01:18;3.30;99.90
19892;DHT22;10108;50.142;8.724;2023-12-07T06:03:44;3.20;99.90
19892;DHT22;10108;50.142;8.724;2023-12-07T06:06:11;3.20;99.90
19892;DHT22;10108;50.142;8.724;2023-12-07T06:08:38;3.10;99.90
19892;DHT22;10108;50.142;8.724;2023-12-07T06:11:04;3.00;99.90
19892;DHT22;10108;50.142;8.724;2023-12-07T06:13:31;3.00;99.90
19892;DHT22;10108;50.142;8.724;2023-12-07T06:15:57;3.10;99.90
19892;DHT22;10108;50.142;8.724;2023-12-07T06:18:23;3.00;99.90
19892;DHT22;10108;50.142;8.724;2023-12-07T06:20:49;2.90;99.90
19892;DHT22;10108;50.142;8.724;2023-12-07T06:23:15;2.90;99.90
19892;DHT22;10108;50.142;8.724;2023-12-07T06:25:42;2.80;99.90
19892;DHT22;10108;50.142;8.724;2023-12-07T06:28:08;2.80;99.90
19892;DHT22;10108;50.142;8.724;2023-12-07T06:30:34;2.70;99.90
19892;DHT22;10108;50.142;8.724;2023-12-07T06:33:00;2.70;99.90
19892;DHT22;10108;50.142;8.724;2023-12-07T06:35:26;2.70;99.90
19892;DHT22;10108;50.142;8.724;2023-12-07T06:37:53;2.80;99.90
19892;DHT22;10108;50.142;8.724;2023-12-07T06:40:19;2.90;99.90
19892;DHT22;10108;50.142;8.724;2023-12-07T06:42:46;3.00;99.90
19892;DHT22;10108;50.142;8.724;2023-12-07T06:45:12;3.10;99.90
19892;DHT22;10108;50.142;8.724;2023-12-07T06:47:40;3.30;99.90
19892;DHT22;10108;50.142;8.724;2023-12-07T06:50:08;3.30;99.90
19892;DHT22;10108;50.142;8.724;2023-12-07T06:52:36;3.30;99.90
19892;DHT22;10108;50.142;8.724;2023-12-07T06:55:02;3.30;99.90
19892;DHT22;10108;50.142;8.724;2023-12-07T06:57:29;3.20;99.90
19892;DHT22;10108;50.142;8.724;2023-12-07T06:59:55;3.10;99.90
19892;DHT22;10108;50.142;8.724;2023-12-07T07:02:21;3.00;99.90
19892;DHT22;10108;50.142;8.724;2023-12-07T07:04:49;3.00;99.90
19892;DHT22;10108;50.142;8.724;2023-12-07T07:07:15;3.10;99.90
19892;DHT22;10108;50.142;8.724;2023-12-07T07:09:42;3.20;99.90
19892;DHT22;10108;50.142;8.724;2023-12-07T07:12:08;3.10;99.90
19892;DHT22;10108;50.142;8.724;2023-12-07T07:14:35;3.10;99.90
19892;DHT22;10108;50.142;8.724;2023-12-07T07:17:01;3.00;99.90
19892;DHT22;10108;50.142;8.724;2023-12-07T07:19:27;2.90;99.90
19892;DHT22;10108;50.142;8.724;2023-12-07T07:21:53;2.80;99.90
19892;DHT22;10108;50.142;8.724;2023-12-07T07:24:20;2.80;99.90
19892;DHT22;10108;50.142;8.724;2023-12-07T07:26:46;2.90;99.90
19892;DHT22;10108;50.142;8.724;2023-12-07T07:29:12;3.00;99.90
19892;DHT22;10108;50.142;8.724;2023-12-07T07:31:39;3.20;99.90
19892;DHT22;10108;50.142;8.724;2023-12-07T07:34:05;3.30;99.90
19892;DHT22;10108;50.142;8.724;2023-12-07T07:36:31;3.30;99.90
19892;DHT22;10108;50.142;8.724;2023-12-07T07:38:58;3.30;99.90
19892;DHT22;10108;50.142;8.724;2023-12-07T07:41:24;3.10;99.90
19892;DHT22;10108;50.142;8.724;2023-12-07T07:43:50;3.00;99.90
19892;DHT22;10108;50.142;8.724;2023-12-07T07:46:16;2.90;99.90
19892;DHT22;10108;50.142;8.724;2023-12-07T07:48:42;2.90;99.90
19892;DHT22;10108;50.142;8.724;2023-12-07T07:51:09;2.80;99.90
19892;DHT22;10108;50.142;8.724;2023-12-07T07:53:35;2.80;99.90
19892;DHT22;10108;50.142;8.724;2023-12-07T07:56:01;2.80;99.90
19892;DHT22;10108;50.142;8.724;2023-12-07T07:58:27;2.80;99.90
19892;DHT22;10108;50.142;8.724;2023-12-07T08:00:53;2.80;99.90
19892;DHT22;10108;50.142;8.724;2023-12-07T08:03:19;2.70;99.90
19892;DHT22;10108;50.142;8.724;2023-12-07T08:05:45;2.80;99.90
19892;DHT22;10108;50.142;8.724;2023-12-07T08:08:11;2.90;99.90
19892;DHT22;10108;50.142;8.724;2023-12-07T08:10:37;3.00;99.90
19892;DHT22;10108;50.142;8.724;2023-12-07T08:13:05;3.20;99.90
19892;DHT22;10108;50.142;8.724;2023-12-07T08:15:34;3.30;99.90
19892;DHT22;10108;50.142;8.724;2023-12-07T08:18:00;3.30;99.90
19892;DHT22;10108;50.142;8.724;2023-12-07T08:20:26;3.20;99.90
19892;DHT22;10108;50.142;8.724;2023-12-07T08:22:52;3.10;99.90
19892;DHT22;10108;50.142;8.724;2023-12-07T08:25:18;3.10;99.90
19892;DHT22;10108;50.142;8.724;2023-12-07T08:27:45;3.10;99.90
19892;DHT22;10108;50.142;8.724;2023-12-07T08:30:12;3.20;99.90
19892;DHT22;10108;50.142;8.724;2023-12-07T08:32:39;3.20;99.90
19892;DHT22;10108;50.142;8.724;2023-12-07T08:35:05;3.20;99.90
19892;DHT22;10108;50.142;8.724;2023-12-07T08:37:32;3.10;99.90
19892;DHT22;10108;50.142;8.724;2023-12-07T08:39:59;3.10;99.90
19892;DHT22;10108;50.142;8.724;2023-12-07T08:42:25;3.00;99.90
19892;DHT22;10108;50.142;8.724;2023-12-07T08:44:53;2.90;99.90
19892;DHT22;10108;50.142;8.724;2023-12-07T08:47:19;2.90;99.90
19892;DHT22;10108;50.142;8.724;2023-12-07T08:49:45;3.00;99.90
19892;DHT22;10108;50.142;8.724;2023-12-07T08:52:11;3.00;99.90
19892;DHT22;10108;50.142;8.724;2023-12-07T08:54:37;3.20;99.90
19892;DHT22;10108;50.142;8.724;2023-12-07T08:57:04;3.30;99.90
19892;DHT22;10108;50.142;8.724;2023-12-07T08:59:30;3.30;99.90
19892;DHT22;10108;50.142;8.724;2023-12-07T09:01:56;3.40;99.90
19892;DHT22;10108;50.142;8.724;2023-12-07T09:04:23;3.40;99.90
19892;DHT22;10108;50.142;8.724;2023-12-07T09:06:49;3.40;99.90
19892;DHT22;10108;50.142;8.724;2023-12-07T09:09:15;3.40;99.90
19892;DHT22;10108;50.142;8.724;2023-12-07T09:11:41;3.50;99.90
19892;DHT22;10108;50.142;8.724;2023-12-07T09:14:07;3.50;99.90
19892;DHT22;10108;50.142;8.724;2023-12-07T09:16:33;3.70;99.90
19892;DHT22;10108;50.142;8.724;2023-12-07T09:19:00;3.80;99.90
19892;DHT22;10108;50.142;8.724;2023-12-07T09:21:27;3.70;99.90
19892;DHT22;10108;50.142;8.724;2023-12-07T09:23:53;3.80;99.90
19892;DHT22;10108;50.142;8.724;2023-12-07T09:26:19;3.80;99.90
19892;DHT22;10108;50.142;8.724;2023-12-07T09:28:46;3.90;99.90
19892;DHT22;10108;50.142;8.724;2023-12-07T09:31:12;3.90;99.90
19892;DHT22;10108;50.142;8.724;2023-12-07T09:33:39;3.90;99.90
19892;DHT22;10108;50.142;8.724;2023-12-07T09:36:05;3.90;99.90
19892;DHT22;10108;50.142;8.724;2023-12-07T09:38:35;3.90;99.90
19892;DHT22;10108;50.142;8.724;2023-12-07T09:41:03;3.80;99.90
19892;DHT22;10108;50.142;8.724;2023-12-07T09:43:29;3.90;99.90
19892;DHT22;10108;50.142;8.724;2023-12-07T09:45:57;3.90;99.90
19892;DHT22;10108;50.142;8.724;2023-12-07T09:48:24;3.90;99.90
19892;DHT22;10108;50.142;8.724;2023-12-07T09:50:51;3.90;99.90
19892;DHT22;10108;50.142;8.724;2023-12-07T09:53:18;4.00;99.90
19892;DHT22;10108;50.142;8.724;2023-12-07T09:55:46;4.00;99.90
19892;DHT22;10108;50.142;8.724;2023-12-07T09:58:13;4.10;99.90
19892;DHT22;10108;50.142;8.724;2023-12-07T10:00:39;4.10;99.90
19892;DHT22;10108;50.142;8.724;2023-12-07T10:03:06;4.10;99.90
19892;DHT22;10108;50.142;8.724;2023-12-07T10:05:59;4.10;99.90
19892;DHT22;10108;50.142;8.724;2023-12-07T10:11:09;4.20;99.90
19892;DHT22;10108;50.142;8.724;2023-12-07T10:13:38;4.20;99.90
19892;DHT22;10108;50.142;8.724;2023-12-07T10:16:15;4.20;99.90
19892;DHT22;10108;50.142;8.724;2023-12-07T10:18:42;4.30;99.90
19892;DHT22;10108;50.142;8.724;2023-12-07T10:21:08;4.30;99.90
19892;DHT22;10108;50.142;8.724;2023-12-07T10:23:36;4.40;99.90
19892;DHT22;10108;50.142;8.724;2023-12-07T10:26:05;4.40;99.90
19892;DHT22;10108;50.142;8.724;2023-12-07T10:28:34;4.50;99.90
19892;DHT22;10108;50.142;8.724;2023-12-07T10:31:01;4.50;99.90
19892;DHT22;10108;50.142;8.724;2023-12-07T10:33:27;4.60;99.90
19892;DHT22;10108;50.142;8.724;2023-12-07T10:35:53;4.60;99.90
19892;DHT22;10108;50.142;8.724;2023-12-07T10:38:20;4.70;99.90
19892;DHT22;10108;50.142;8.724;2023-12-07T10:40:46;4.70;99.90
19892;DHT22;10108;50.142;8.724;2023-12-07T10:43:13;4.80;99.90
19892;DHT22;10108;50.142;8.724;2023-12-07T10:45:41;4.80;99.90
19892;DHT22;10108;50.142;8.724;2023-12-07T10:48:10;4.70;99.90
19892;DHT22;10108;50.142;8.724;2023-12-07T10:50:42;4.70;99.90
19892;DHT22;10108;50.142;8.724;2023-12-07T10:53:34;4.70;99.90
19892;DHT22;10108;50.142;8.724;2023-12-07T10:56:09;4.60;99.90
19892;DHT22;10108;50.142;8.724;2023-12-07T10:58:36;4.60;99.90
19892;DHT22;10108;50.142;8.724;2023-12-07T11:01:03;4.70;99.90
19892;DHT22;10108;50.142;8.724;2023-12-07T11:03:31;4.70;99.90
19892;DHT22;10108;50.142;8.724;2023-12-07T11:05:57;4.80;99.90
19892;DHT22;10108;50.142;8.724;2023-12-07T11:11:01;4.90;99.90
19892;DHT22;10108;50.142;8.724;2023-12-07T11:13:30;4.90;99.90
19892;DHT22;10108;50.142;8.724;2023-12-07T11:15:57;4.90;99.90
19892;DHT22;10108;50.142;8.724;2023-12-07T11:18:28;4.90;99.90
19892;DHT22;10108;50.142;8.724;2023-12-07T11:20:55;4.90;99.90
19892;DHT22;10108;50.142;8.724;2023-12-07T11:23:21;4.90;99.90
19892;DHT22;10108;50.142;8.724;2023-12-07T11:25:49;4.80;99.90
19892;DHT22;10108;50.142;8.724;2023-12-07T11:28:16;4.80;99.90
19892;DHT22;10108;50.142;8.724;2023-12-07T11:30:45;4.80;99.90
19892;DHT22;10108;50.142;8.724;2023-12-07T11:33:11;4.80;99.90
19892;DHT22;10108;50.142;8.724;2023-12-07T11:36:03;4.80;99.90
19892;DHT22;10108;50.142;8.724;2023-12-07T11:38:30;4.90;99.90
19892;DHT22;10108;50.142;8.724;2023-12-07T11:40:57;4.90;99.90
19892;DHT22;10108;50.142;8.724;2023-12-07T11:43:30;4.90;99.90
19892;DHT22;10108;50.142;8.724;2023-12-07T11:46:02;4.90;99.90
19892;DHT22;10108;50.142;8.724;2023-12-07T11:48:28;5.00;99.90
19892;DHT22;10108;50.142;8.724;2023-12-07T11:50:59;4.90;99.90
19892;DHT22;10108;50.142;8.724;2023-12-07T11:55:57;5.00;99.90
19892;DHT22;10108;50.142;8.724;2023-12-07T11:58:28;5.00;99.90
19892;DHT22;10108;50.142;8.724;2023-12-07T12:00:54;5.00;99.90
19892;DHT22;10108;50.142;8.724;2023-12-07T12:03:25;5.00;99.90
19892;DHT22;10108;50.142;8.724;2023-12-07T12:05:52;5.10;99.90
19892;DHT22;10108;50.142;8.724;2023-12-07T12:08:19;5.10;99.90
19892;DHT22;10108;50.142;8.724;2023-12-07T12:10:46;5.20;99.90
19892;DHT22;10108;50.142;8.724;2023-12-07T12:13:12;5.20;99.90
19892;DHT22;10108;50.142;8.724;2023-12-07T12:15:39;5.20;99.90
19892;DHT22;10108;50.142;8.724;2023-12-07T12:18:06;5.20;99.90
19892;DHT22;10108;50.142;8.724;2023-12-07T12:20:33;5.20;99.90
19892;DHT22;10108;50.142;8.724;2023-12-07T12:23:00;5.30;99.90
19892;DHT22;10108;50.142;8.724;2023-12-07T12:25:27;5.30;99.90
19892;DHT22;10108;50.142;8.724;2023-12-07T12:27:58;5.30;99.90
19892;DHT22;10108;50.142;8.724;2023-12-07T12:30:27;5.30;99.90
19892;DHT22;10108;50.142;8.724;2023-12-07T12:32:55;5.40;99.90
19892;DHT22;10108;50.142;8.724;2023-12-07T12:35:21;5.40;99.90
19892;DHT22;10108;50.142;8.724;2023-12-07T12:37:48;5.40;99.90
19892;DHT22;10108;50.142;8.724;2023-12-07T12:40:19;5.40;99.90
19892;DHT22;10108;50.142;8.724;2023-12-07T12:42:47;5.40;99.90
19892;DHT22;10108;50.142;8.724;2023-12-07T12:45:14;5.30;99.90
19892;DHT22;10108;50.142;8.724;2023-12-07T12:47:41;5.30;99.90
19892;DHT22;10108;50.142;8.724;2023-12-07T12:50:10;5.30;99.90
19892;DHT22;10108;50.142;8.724;2023-12-07T12:52:36;5.40;99.90
19892;DHT22;10108;50.142;8.724;2023-12-07T12:55:11;5.40;99.90
19892;DHT22;10108;50.142;8.724;2023-12-07T12:57:37;5.40;99.90
19892;DHT22;10108;50.142;8.724;2023-12-07T13:00:04;5.40;99.90
19892;DHT22;10108;50.142;8.724;2023-12-07T13:02:33;5.30;99.90
19892;DHT22;10108;50.142;8.724;2023-12-07T13:05:00;5.20;99.90
19892;DHT22;10108;50.142;8.724;2023-12-07T13:07:26;5.10;99.90
19892;DHT22;10108;50.142;8.724;2023-12-07T13:09:52;5.00;99.90
19892;DHT22;10108;50.142;8.724;2023-12-07T13:12:18;5.00;99.90
19892;DHT22;10108;50.142;8.724;2023-12-07T13:14:44;5.00;99.90
19892;DHT22;10108;50.142;8.724;2023-12-07T13:17:12;4.90;99.90
19892;DHT22;10108;50.142;8.724;2023-12-07T13:19:38;4.90;99.90
19892;DHT22;10108;50.142;8.724;2023-12-07T13:22:04;4.90;99.90
19892;DHT22;10108;50.142;8.724;2023-12-07T13:24:31;4.90;99.90
19892;DHT22;10108;50.142;8.724;2023-12-07T13:26:57;4.90;99.90
19892;DHT22;10108;50.142;8.724;2023-12-07T13:29:26;4.90;99.90
19892;DHT22;10108;50.142;8.724;2023-12-07T13:31:52;5.00;99.90
19892;DHT22;10108;50.142;8.724;2023-12-07T13:34:18;5.10;99.90
19892;DHT22;10108;50.142;8.724;2023-12-07T13:36:44;5.10;99.90
19892;DHT22;10108;50.142;8.724;2023-12-07T13:39:11;5.20;99.90
19892;DHT22;10108;50.142;8.724;2023-12-07T13:41:39;5.20;99.90
19892;DHT22;10108;50.142;8.724;2023-12-07T13:44:05;5.30;99.90
19892;DHT22;10108;50.142;8.724;2023-12-07T13:46:31;5.30;99.90
19892;DHT22;10108;50.142;8.724;2023-12-07T13:48:59;5.30;99.90
19892;DHT22;10108;50.142;8.724;2023-12-07T13:51:25;5.40;99.90
19892;DHT22;10108;50.142;8.724;2023-12-07T13:53:51;5.40;99.90
19892;DHT22;10108;50.142;8.724;2023-12-07T13:56:22;5.30;99.90
19892;DHT22;10108;50.142;8.724;2023-12-07T13:58:49;5.40;99.90
19892;DHT22;10108;50.142;8.724;2023-12-07T14:01:17;5.40;99.90
19892;DHT22;10108;50.142;8.724;2023-12-07T14:03:44;5.40;99.90
19892;DHT22;10108;50.142;8.724;2023-12-07T14:06:10;5.40;99.90
19892;DHT22;10108;50.142;8.724;2023-12-07T14:08:38;5.40;99.90
19892;DHT22;10108;50.142;8.724;2023-12-07T14:11:04;5.40;99.90
19892;DHT22;10108;50.142;8.724;2023-12-07T14:13:31;5.40;99.90
19892;DHT22;10108;50.142;8.724;2023-12-07T14:15:57;5.40;99.90
19892;DHT22;10108;50.142;8.724;2023-12-07T14:18:23;5.30;99.90
19892;DHT22;10108;50.142;8.724;2023-12-07T14:20:49;5.20;99.90
19892;DHT22;10108;50.142;8.724;2023-12-07T14:23:15;5.10;99.90
19892;DHT22;10108;50.142;8.724;2023-12-07T14:25:41;5.10;99.90
19892;DHT22;10108;50.142;8.724;2023-12-07T14:28:12;5.10;99.90
19892;DHT22;10108;50.142;8.724;2023-12-07T14:30:38;5.00;99.90
19892;DHT22;10108;50.142;8.724;2023-12-07T14:33:04;5.00;99.90
19892;DHT22;10108;50.142;8.724;2023-12-07T14:35:33;5.00;99.90
19892;DHT22;10108;50.142;8.724;2023-12-07T14:38:02;4.90;99.90
19892;DHT22;10108;50.142;8.724;2023-12-07T14:40:28;4.90;99.90
19892;DHT22;10108;50.142;8.724;2023-12-07T14:42:55;4.90;99.90
19892;DHT22;10108;50.142;8.724;2023-12-07T14:45:21;4.90;99.90
19892;DHT22;10108;50.142;8.724;2023-12-07T14:47:47;4.90;99.90
19892;DHT22;10108;50.142;8.724;2023-12-07T14:50:13;4.90;99.90
19892;DHT22;10108;50.142;8.724;2023-12-07T14:52:39;4.90;99.90
19892;DHT22;10108;50.142;8.724;2023-12-07T14:55:06;4.90;99.90
19892;DHT22;10108;50.142;8.724;2023-12-07T14:57:32;4.90;99.90
19892;DHT22;10108;50.142;8.724;2023-12-07T14:59:58;4.90;99.90
19892;DHT22;10108;50.142;8.724;2023-12-07T15:02:25;4.90;99.90
19892;DHT22;10108;50.142;8.724;2023-12-07T15:04:51;4.90;99.90
19892;DHT22;10108;50.142;8.724;2023-12-07T15:07:17;4.90;99.90
19892;DHT22;10108;50.142;8.724;2023-12-07T15:09:43;4.90;99.90
19892;DHT22;10108;50.142;8.724;2023-12-07T15:12:12;4.90;99.90
19892;DHT22;10108;50.142;8.724;2023-12-07T15:14:47;4.80;99.90
19892;DHT22;10108;50.142;8.724;2023-12-07T15:17:13;4.80;99.90
19892;DHT22;10108;50.142;8.724;2023-12-07T15:19:39;4.80;99.90
19892;DHT22;10108;50.142;8.724;2023-12-07T15:22:05;4.80;99.90
19892;DHT22;10108;50.142;8.724;2023-12-07T15:24:31;4.80;99.90
19892;DHT22;10108;50.142;8.724;2023-12-07T15:26:57;4.80;99.90
19892;DHT22;10108;50.142;8.724;2023-12-07T15:29:23;4.80;99.90
19892;DHT22;10108;50.142;8.724;2023-12-07T15:31:49;4.80;99.90
19892;DHT22;10108;50.142;8.724;2023-12-07T15:34:16;4.80;99.90
19892;DHT22;10108;50.142;8.724;2023-12-07T15:36:42;4.80;99.90
19892;DHT22;10108;50.142;8.724;2023-12-07T15:39:08;4.70;99.90
19892;DHT22;10108;50.142;8.724;2023-12-07T15:41:37;4.70;99.90
19892;DHT22;10108;50.142;8.724;2023-12-07T15:44:04;4.70;99.90
19892;DHT22;10108;50.142;8.724;2023-12-07T15:46:30;4.70;99.90
19892;DHT22;10108;50.142;8.724;2023-12-07T15:48:56;4.70;99.90
19892;DHT22;10108;50.142;8.724;2023-12-07T15:51:22;4.60;99.90